<?xml version="1.0" encoding="UTF-8" standalone="no" ?>
<gpx xmlns="http://www.topografix.com/GPX/1/1" xmlns:xsi="http://www.w3.org/2001/XMLSchema-instance" xsi:schemaLocation="http://www.topografix.com/GPX/1/1 http://www.topografix.com/GPX/1/1/gpx.xsd" version="1.1" creator="VisuGPX - https://www.visugpx.com">
  <metadata>
    <name>pour vacances</name>
    <desc><![CDATA[pourquoi pas ?]]></desc>
  </metadata>
  <trk>
    <name><![CDATA[2009-0219 Autour du Port de Llo-MNT]]></name>
    <trkseg>
      <trkpt lat="42.46978" lon="2.0816">
        <ele>1600</ele>
        <time>2009-02-19T13:15:48Z</time>
      </trkpt>
      <trkpt lat="42.46957" lon="2.08187">
        <ele>1602</ele>
        <time>2009-02-19T13:16:19Z</time>
      </trkpt>
      <trkpt lat="42.46942" lon="2.08212">
        <ele>1602</ele>
        <time>2009-02-19T13:16:49Z</time>
      </trkpt>
      <trkpt lat="42.4693" lon="2.08215">
        <ele>1602</ele>
        <time>2009-02-19T13:17:19Z</time>
      </trkpt>
      <trkpt lat="42.4691" lon="2.08213">
        <ele>1606</ele>
        <time>2009-02-19T13:18:51Z</time>
      </trkpt>
      <trkpt lat="42.46893" lon="2.08202">
        <ele>1609</ele>
        <time>2009-02-19T13:19:21Z</time>
      </trkpt>
      <trkpt lat="42.4688" lon="2.08192">
        <ele>1611</ele>
        <time>2009-02-19T13:19:51Z</time>
      </trkpt>
      <trkpt lat="42.4686" lon="2.08188">
        <ele>1613</ele>
        <time>2009-02-19T13:20:22Z</time>
      </trkpt>
      <trkpt lat="42.46842" lon="2.08188">
        <ele>1616</ele>
        <time>2009-02-19T13:20:52Z</time>
      </trkpt>
      <trkpt lat="42.46818" lon="2.0819">
        <ele>1616</ele>
        <time>2009-02-19T13:21:23Z</time>
      </trkpt>
      <trkpt lat="42.4679" lon="2.08203">
        <ele>1618</ele>
        <time>2009-02-19T13:21:53Z</time>
      </trkpt>
      <trkpt lat="42.46768" lon="2.08212">
        <ele>1620</ele>
        <time>2009-02-19T13:22:23Z</time>
      </trkpt>
      <trkpt lat="42.4675" lon="2.08215">
        <ele>1621</ele>
        <time>2009-02-19T13:22:54Z</time>
      </trkpt>
      <trkpt lat="42.46728" lon="2.08222">
        <ele>1624</ele>
        <time>2009-02-19T13:23:24Z</time>
      </trkpt>
      <trkpt lat="42.4671" lon="2.0822">
        <ele>1625</ele>
        <time>2009-02-19T13:23:54Z</time>
      </trkpt>
      <trkpt lat="42.46698" lon="2.08223">
        <ele>1626</ele>
        <time>2009-02-19T13:24:25Z</time>
      </trkpt>
      <trkpt lat="42.46698" lon="2.08223">
        <ele>1626</ele>
        <time>2009-02-19T13:24:55Z</time>
      </trkpt>
      <trkpt lat="42.46695" lon="2.08228">
        <ele>1628</ele>
        <time>2009-02-19T13:25:25Z</time>
      </trkpt>
      <trkpt lat="42.4669" lon="2.08235">
        <ele>1629</ele>
        <time>2009-02-19T13:25:56Z</time>
      </trkpt>
      <trkpt lat="42.4668" lon="2.08243">
        <ele>1631</ele>
        <time>2009-02-19T13:26:26Z</time>
      </trkpt>
      <trkpt lat="42.46665" lon="2.08252">
        <ele>1633</ele>
        <time>2009-02-19T13:26:56Z</time>
      </trkpt>
      <trkpt lat="42.46648" lon="2.08263">
        <ele>1634</ele>
        <time>2009-02-19T13:27:27Z</time>
      </trkpt>
      <trkpt lat="42.46628" lon="2.08282">
        <ele>1637</ele>
        <time>2009-02-19T13:27:57Z</time>
      </trkpt>
      <trkpt lat="42.46627" lon="2.08283">
        <ele>1637</ele>
        <time>2009-02-19T13:28:27Z</time>
      </trkpt>
      <trkpt lat="42.46623" lon="2.08288">
        <ele>1637</ele>
        <time>2009-02-19T13:28:58Z</time>
      </trkpt>
      <trkpt lat="42.46615" lon="2.08297">
        <ele>1638</ele>
        <time>2009-02-19T13:29:28Z</time>
      </trkpt>
      <trkpt lat="42.46598" lon="2.08317">
        <ele>1640</ele>
        <time>2009-02-19T13:29:58Z</time>
      </trkpt>
      <trkpt lat="42.46583" lon="2.08338">
        <ele>1642</ele>
        <time>2009-02-19T13:30:29Z</time>
      </trkpt>
      <trkpt lat="42.46567" lon="2.08353">
        <ele>1644</ele>
        <time>2009-02-19T13:30:59Z</time>
      </trkpt>
      <trkpt lat="42.4655" lon="2.08368">
        <ele>1647</ele>
        <time>2009-02-19T13:31:30Z</time>
      </trkpt>
      <trkpt lat="42.46532" lon="2.08378">
        <ele>1650</ele>
        <time>2009-02-19T13:32:00Z</time>
      </trkpt>
      <trkpt lat="42.46523" lon="2.08383">
        <ele>1652</ele>
        <time>2009-02-19T13:32:30Z</time>
      </trkpt>
      <trkpt lat="42.46518" lon="2.08392">
        <ele>1654</ele>
        <time>2009-02-19T13:37:33Z</time>
      </trkpt>
      <trkpt lat="42.46495" lon="2.08405">
        <ele>1659</ele>
        <time>2009-02-19T13:38:04Z</time>
      </trkpt>
      <trkpt lat="42.46478" lon="2.08405">
        <ele>1662</ele>
        <time>2009-02-19T13:38:34Z</time>
      </trkpt>
      <trkpt lat="42.4646" lon="2.08392">
        <ele>1662</ele>
        <time>2009-02-19T13:39:04Z</time>
      </trkpt>
      <trkpt lat="42.46443" lon="2.08378">
        <ele>1663</ele>
        <time>2009-02-19T13:39:35Z</time>
      </trkpt>
      <trkpt lat="42.46428" lon="2.0835">
        <ele>1662</ele>
        <time>2009-02-19T13:40:05Z</time>
      </trkpt>
      <trkpt lat="42.46423" lon="2.08338">
        <ele>1661</ele>
        <time>2009-02-19T13:40:35Z</time>
      </trkpt>
      <trkpt lat="42.46413" lon="2.08325">
        <ele>1660</ele>
        <time>2009-02-19T13:41:06Z</time>
      </trkpt>
      <trkpt lat="42.46395" lon="2.08307">
        <ele>1659</ele>
        <time>2009-02-19T13:41:36Z</time>
      </trkpt>
      <trkpt lat="42.4638" lon="2.08282">
        <ele>1659</ele>
        <time>2009-02-19T13:42:06Z</time>
      </trkpt>
      <trkpt lat="42.46377" lon="2.08287">
        <ele>1660</ele>
        <time>2009-02-19T13:42:37Z</time>
      </trkpt>
      <trkpt lat="42.46368" lon="2.08257">
        <ele>1660</ele>
        <time>2009-02-19T13:43:07Z</time>
      </trkpt>
      <trkpt lat="42.46352" lon="2.0823">
        <ele>1664</ele>
        <time>2009-02-19T13:43:38Z</time>
      </trkpt>
      <trkpt lat="42.46338" lon="2.08208">
        <ele>1667</ele>
        <time>2009-02-19T13:44:08Z</time>
      </trkpt>
      <trkpt lat="42.46333" lon="2.08178">
        <ele>1668</ele>
        <time>2009-02-19T13:44:38Z</time>
      </trkpt>
      <trkpt lat="42.46322" lon="2.0816">
        <ele>1670</ele>
        <time>2009-02-19T13:45:09Z</time>
      </trkpt>
      <trkpt lat="42.46303" lon="2.08145">
        <ele>1672</ele>
        <time>2009-02-19T13:45:39Z</time>
      </trkpt>
      <trkpt lat="42.46293" lon="2.08147">
        <ele>1673</ele>
        <time>2009-02-19T13:46:10Z</time>
      </trkpt>
      <trkpt lat="42.4627" lon="2.08152">
        <ele>1676</ele>
        <time>2009-02-19T13:46:40Z</time>
      </trkpt>
      <trkpt lat="42.46263" lon="2.08155">
        <ele>1677</ele>
        <time>2009-02-19T13:47:10Z</time>
      </trkpt>
      <trkpt lat="42.46265" lon="2.08143">
        <ele>1676</ele>
        <time>2009-02-19T13:49:45Z</time>
      </trkpt>
      <trkpt lat="42.46273" lon="2.0812">
        <ele>1676</ele>
        <time>2009-02-19T13:50:16Z</time>
      </trkpt>
      <trkpt lat="42.46283" lon="2.081">
        <ele>1676</ele>
        <time>2009-02-19T13:50:46Z</time>
      </trkpt>
      <trkpt lat="42.46288" lon="2.0808">
        <ele>1676</ele>
        <time>2009-02-19T13:51:16Z</time>
      </trkpt>
      <trkpt lat="42.46287" lon="2.0807">
        <ele>1676</ele>
        <time>2009-02-19T13:51:47Z</time>
      </trkpt>
      <trkpt lat="42.46281" lon="2.08049">
        <ele>1677</ele>
        <time>2009-02-19T13:52:17Z</time>
      </trkpt>
      <trkpt lat="42.46255" lon="2.08017">
        <ele>1680</ele>
        <time>2009-02-19T13:52:47Z</time>
      </trkpt>
      <trkpt lat="42.46232" lon="2.08006">
        <ele>1682</ele>
        <time>2009-02-19T13:53:18Z</time>
      </trkpt>
      <trkpt lat="42.46231" lon="2.08024">
        <ele>1684</ele>
        <time>2009-02-19T13:53:48Z</time>
      </trkpt>
      <trkpt lat="42.46242" lon="2.08056">
        <ele>1684</ele>
        <time>2009-02-19T13:54:18Z</time>
      </trkpt>
      <trkpt lat="42.4622" lon="2.0805">
        <ele>1687</ele>
        <time>2009-02-19T13:54:49Z</time>
      </trkpt>
      <trkpt lat="42.46213" lon="2.08047">
        <ele>1687</ele>
        <time>2009-02-19T13:55:19Z</time>
      </trkpt>
      <trkpt lat="42.46192" lon="2.08047">
        <ele>1689</ele>
        <time>2009-02-19T13:55:49Z</time>
      </trkpt>
      <trkpt lat="42.46173" lon="2.08048">
        <ele>1691</ele>
        <time>2009-02-19T13:56:19Z</time>
      </trkpt>
      <trkpt lat="42.46172" lon="2.08048">
        <ele>1691</ele>
        <time>2009-02-19T13:56:50Z</time>
      </trkpt>
      <trkpt lat="42.46157" lon="2.08052">
        <ele>1694</ele>
        <time>2009-02-19T13:57:20Z</time>
      </trkpt>
      <trkpt lat="42.4614" lon="2.08055">
        <ele>1697</ele>
        <time>2009-02-19T13:57:51Z</time>
      </trkpt>
      <trkpt lat="42.46127" lon="2.08055">
        <ele>1700</ele>
        <time>2009-02-19T13:58:21Z</time>
      </trkpt>
      <trkpt lat="42.46118" lon="2.08055">
        <ele>1702</ele>
        <time>2009-02-19T13:58:51Z</time>
      </trkpt>
      <trkpt lat="42.461" lon="2.08047">
        <ele>1705</ele>
        <time>2009-02-19T13:59:52Z</time>
      </trkpt>
      <trkpt lat="42.46083" lon="2.08043">
        <ele>1709</ele>
        <time>2009-02-19T14:00:22Z</time>
      </trkpt>
      <trkpt lat="42.46068" lon="2.08042">
        <ele>1712</ele>
        <time>2009-02-19T14:00:53Z</time>
      </trkpt>
      <trkpt lat="42.46052" lon="2.08038">
        <ele>1714</ele>
        <time>2009-02-19T14:01:23Z</time>
      </trkpt>
      <trkpt lat="42.46047" lon="2.08035">
        <ele>1716</ele>
        <time>2009-02-19T14:01:53Z</time>
      </trkpt>
      <trkpt lat="42.4604" lon="2.08032">
        <ele>1717</ele>
        <time>2009-02-19T14:02:24Z</time>
      </trkpt>
      <trkpt lat="42.46028" lon="2.0803">
        <ele>1719</ele>
        <time>2009-02-19T14:02:54Z</time>
      </trkpt>
      <trkpt lat="42.46015" lon="2.08028">
        <ele>1721</ele>
        <time>2009-02-19T14:03:24Z</time>
      </trkpt>
      <trkpt lat="42.46003" lon="2.08025">
        <ele>1723</ele>
        <time>2009-02-19T14:03:55Z</time>
      </trkpt>
      <trkpt lat="42.45988" lon="2.08018">
        <ele>1726</ele>
        <time>2009-02-19T14:04:25Z</time>
      </trkpt>
      <trkpt lat="42.45973" lon="2.0801">
        <ele>1729</ele>
        <time>2009-02-19T14:04:56Z</time>
      </trkpt>
      <trkpt lat="42.45958" lon="2.07998">
        <ele>1732</ele>
        <time>2009-02-19T14:05:26Z</time>
      </trkpt>
      <trkpt lat="42.45903" lon="2.07978">
        <ele>1742</ele>
        <time>2009-02-19T14:05:56Z</time>
      </trkpt>
      <trkpt lat="42.45883" lon="2.07969">
        <ele>1745</ele>
        <time>2009-02-19T14:06:27Z</time>
      </trkpt>
      <trkpt lat="42.45877" lon="2.07962">
        <ele>1746</ele>
        <time>2009-02-19T14:06:57Z</time>
      </trkpt>
      <trkpt lat="42.45875" lon="2.07948">
        <ele>1747</ele>
        <time>2009-02-19T14:07:27Z</time>
      </trkpt>
      <trkpt lat="42.45873" lon="2.07943">
        <ele>1747</ele>
        <time>2009-02-19T14:08:30Z</time>
      </trkpt>
      <trkpt lat="42.45868" lon="2.0792">
        <ele>1748</ele>
        <time>2009-02-19T14:09:00Z</time>
      </trkpt>
      <trkpt lat="42.45867" lon="2.07893">
        <ele>1749</ele>
        <time>2009-02-19T14:09:31Z</time>
      </trkpt>
      <trkpt lat="42.45867" lon="2.07877">
        <ele>1748</ele>
        <time>2009-02-19T14:10:01Z</time>
      </trkpt>
      <trkpt lat="42.45857" lon="2.07855">
        <ele>1747</ele>
        <time>2009-02-19T14:11:32Z</time>
      </trkpt>
      <trkpt lat="42.45853" lon="2.07812">
        <ele>1746</ele>
        <time>2009-02-19T14:12:03Z</time>
      </trkpt>
      <trkpt lat="42.4585" lon="2.07803">
        <ele>1746</ele>
        <time>2009-02-19T14:12:33Z</time>
      </trkpt>
      <trkpt lat="42.45845" lon="2.07788">
        <ele>1745</ele>
        <time>2009-02-19T14:13:03Z</time>
      </trkpt>
      <trkpt lat="42.45842" lon="2.0778">
        <ele>1744</ele>
        <time>2009-02-19T14:13:34Z</time>
      </trkpt>
      <trkpt lat="42.45835" lon="2.0776">
        <ele>1744</ele>
        <time>2009-02-19T14:29:14Z</time>
      </trkpt>
      <trkpt lat="42.45833" lon="2.07747">
        <ele>1744</ele>
        <time>2009-02-19T14:29:45Z</time>
      </trkpt>
      <trkpt lat="42.45838" lon="2.07727">
        <ele>1744</ele>
        <time>2009-02-19T14:30:15Z</time>
      </trkpt>
      <trkpt lat="42.45842" lon="2.07703">
        <ele>1744</ele>
        <time>2009-02-19T14:30:45Z</time>
      </trkpt>
      <trkpt lat="42.4585" lon="2.07668">
        <ele>1743</ele>
        <time>2009-02-19T14:31:16Z</time>
      </trkpt>
      <trkpt lat="42.45852" lon="2.07658">
        <ele>1743</ele>
        <time>2009-02-19T14:32:16Z</time>
      </trkpt>
      <trkpt lat="42.4585" lon="2.07655">
        <ele>1743</ele>
        <time>2009-02-19T14:32:47Z</time>
      </trkpt>
      <trkpt lat="42.45852" lon="2.07646">
        <ele>1743</ele>
        <time>2009-02-19T14:33:17Z</time>
      </trkpt>
      <trkpt lat="42.45854" lon="2.07637">
        <ele>1742</ele>
        <time>2009-02-19T14:33:47Z</time>
      </trkpt>
      <trkpt lat="42.45855" lon="2.07627">
        <ele>1741</ele>
        <time>2009-02-19T14:34:18Z</time>
      </trkpt>
      <trkpt lat="42.45856" lon="2.07614">
        <ele>1740</ele>
        <time>2009-02-19T14:34:48Z</time>
      </trkpt>
      <trkpt lat="42.45859" lon="2.07602">
        <ele>1738</ele>
        <time>2009-02-19T14:35:18Z</time>
      </trkpt>
      <trkpt lat="42.45866" lon="2.07599">
        <ele>1737</ele>
        <time>2009-02-19T14:35:49Z</time>
      </trkpt>
      <trkpt lat="42.45872" lon="2.07587">
        <ele>1735</ele>
        <time>2009-02-19T14:36:19Z</time>
      </trkpt>
      <trkpt lat="42.45879" lon="2.07586">
        <ele>1734</ele>
        <time>2009-02-19T14:36:49Z</time>
      </trkpt>
      <trkpt lat="42.45885" lon="2.07578">
        <ele>1732</ele>
        <time>2009-02-19T14:37:20Z</time>
      </trkpt>
      <trkpt lat="42.45895" lon="2.07566">
        <ele>1729</ele>
        <time>2009-02-19T14:37:50Z</time>
      </trkpt>
      <trkpt lat="42.45904" lon="2.0756">
        <ele>1727</ele>
        <time>2009-02-19T14:38:20Z</time>
      </trkpt>
      <trkpt lat="42.45914" lon="2.07554">
        <ele>1725</ele>
        <time>2009-02-19T14:38:51Z</time>
      </trkpt>
      <trkpt lat="42.45921" lon="2.07548">
        <ele>1723</ele>
        <time>2009-02-19T14:39:21Z</time>
      </trkpt>
      <trkpt lat="42.45934" lon="2.07545">
        <ele>1721</ele>
        <time>2009-02-19T14:39:52Z</time>
      </trkpt>
      <trkpt lat="42.45944" lon="2.07538">
        <ele>1719</ele>
        <time>2009-02-19T14:40:22Z</time>
      </trkpt>
      <trkpt lat="42.45954" lon="2.07534">
        <ele>1717</ele>
        <time>2009-02-19T14:40:52Z</time>
      </trkpt>
      <trkpt lat="42.45963" lon="2.07526">
        <ele>1714</ele>
        <time>2009-02-19T14:41:23Z</time>
      </trkpt>
      <trkpt lat="42.4597" lon="2.0752">
        <ele>1712</ele>
        <time>2009-02-19T14:41:53Z</time>
      </trkpt>
      <trkpt lat="42.45978" lon="2.07514">
        <ele>1710</ele>
        <time>2009-02-19T14:42:23Z</time>
      </trkpt>
      <trkpt lat="42.45989" lon="2.07509">
        <ele>1707</ele>
        <time>2009-02-19T14:42:54Z</time>
      </trkpt>
      <trkpt lat="42.46006" lon="2.07498">
        <ele>1702</ele>
        <time>2009-02-19T14:43:24Z</time>
      </trkpt>
      <trkpt lat="42.46023" lon="2.07488">
        <ele>1698</ele>
        <time>2009-02-19T14:43:54Z</time>
      </trkpt>
      <trkpt lat="42.46041" lon="2.07477">
        <ele>1693</ele>
        <time>2009-02-19T14:44:25Z</time>
      </trkpt>
      <trkpt lat="42.46055" lon="2.07468">
        <ele>1689</ele>
        <time>2009-02-19T14:44:55Z</time>
      </trkpt>
      <trkpt lat="42.46066" lon="2.07454">
        <ele>1684</ele>
        <time>2009-02-19T14:45:25Z</time>
      </trkpt>
      <trkpt lat="42.4608" lon="2.07436">
        <ele>1677</ele>
        <time>2009-02-19T14:45:56Z</time>
      </trkpt>
      <trkpt lat="42.4609" lon="2.07419">
        <ele>1671</ele>
        <time>2009-02-19T14:46:26Z</time>
      </trkpt>
      <trkpt lat="42.46102" lon="2.07403">
        <ele>1665</ele>
        <time>2009-02-19T14:46:56Z</time>
      </trkpt>
      <trkpt lat="42.46118" lon="2.07387">
        <ele>1656</ele>
        <time>2009-02-19T14:47:27Z</time>
      </trkpt>
      <trkpt lat="42.4613" lon="2.07377">
        <ele>1650</ele>
        <time>2009-02-19T14:47:57Z</time>
      </trkpt>
      <trkpt lat="42.46145" lon="2.07369">
        <ele>1645</ele>
        <time>2009-02-19T14:48:27Z</time>
      </trkpt>
      <trkpt lat="42.4616" lon="2.07364">
        <ele>1640</ele>
        <time>2009-02-19T14:48:58Z</time>
      </trkpt>
      <trkpt lat="42.46171" lon="2.07389">
        <ele>1640</ele>
        <time>2009-02-19T14:49:28Z</time>
      </trkpt>
      <trkpt lat="42.46179" lon="2.07416">
        <ele>1641</ele>
        <time>2009-02-19T14:49:58Z</time>
      </trkpt>
      <trkpt lat="42.46189" lon="2.07435">
        <ele>1638</ele>
        <time>2009-02-19T14:50:28Z</time>
      </trkpt>
      <trkpt lat="42.46211" lon="2.07422">
        <ele>1631</ele>
        <time>2009-02-19T14:50:59Z</time>
      </trkpt>
      <trkpt lat="42.46214" lon="2.07387">
        <ele>1629</ele>
        <time>2009-02-19T14:51:29Z</time>
      </trkpt>
      <trkpt lat="42.46214" lon="2.07359">
        <ele>1628</ele>
        <time>2009-02-19T14:52:00Z</time>
      </trkpt>
      <trkpt lat="42.46222" lon="2.07327">
        <ele>1624</ele>
        <time>2009-02-19T14:52:30Z</time>
      </trkpt>
      <trkpt lat="42.46232" lon="2.07295">
        <ele>1619</ele>
        <time>2009-02-19T14:53:00Z</time>
      </trkpt>
      <trkpt lat="42.46241" lon="2.07253">
        <ele>1614</ele>
        <time>2009-02-19T14:53:31Z</time>
      </trkpt>
      <trkpt lat="42.4625" lon="2.0723">
        <ele>1611</ele>
        <time>2009-02-19T14:54:01Z</time>
      </trkpt>
      <trkpt lat="42.46262" lon="2.07203">
        <ele>1606</ele>
        <time>2009-02-19T14:54:31Z</time>
      </trkpt>
      <trkpt lat="42.46279" lon="2.07163">
        <ele>1600</ele>
        <time>2009-02-19T14:55:02Z</time>
      </trkpt>
      <trkpt lat="42.46286" lon="2.07128">
        <ele>1595</ele>
        <time>2009-02-19T14:55:32Z</time>
      </trkpt>
      <trkpt lat="42.46293" lon="2.07085">
        <ele>1589</ele>
        <time>2009-02-19T14:56:03Z</time>
      </trkpt>
      <trkpt lat="42.46293" lon="2.07071">
        <ele>1588</ele>
        <time>2009-02-19T14:58:34Z</time>
      </trkpt>
      <trkpt lat="42.46285" lon="2.07048">
        <ele>1586</ele>
        <time>2009-02-19T14:59:05Z</time>
      </trkpt>
      <trkpt lat="42.46283" lon="2.07038">
        <ele>1585</ele>
        <time>2009-02-19T14:59:35Z</time>
      </trkpt>
      <trkpt lat="42.46273" lon="2.07015">
        <ele>1583</ele>
        <time>2009-02-19T15:00:05Z</time>
      </trkpt>
      <trkpt lat="42.46256" lon="2.06968">
        <ele>1579</ele>
        <time>2009-02-19T15:00:35Z</time>
      </trkpt>
      <trkpt lat="42.46256" lon="2.0694">
        <ele>1577</ele>
        <time>2009-02-19T15:01:06Z</time>
      </trkpt>
      <trkpt lat="42.46256" lon="2.06927">
        <ele>1576</ele>
        <time>2009-02-19T15:01:36Z</time>
      </trkpt>
      <trkpt lat="42.46262" lon="2.06915">
        <ele>1576</ele>
        <time>2009-02-19T15:02:06Z</time>
      </trkpt>
      <trkpt lat="42.46293" lon="2.06898">
        <ele>1578</ele>
        <time>2009-02-19T15:02:37Z</time>
      </trkpt>
      <trkpt lat="42.46325" lon="2.06915">
        <ele>1580</ele>
        <time>2009-02-19T15:03:07Z</time>
      </trkpt>
      <trkpt lat="42.46333" lon="2.06918">
        <ele>1581</ele>
        <time>2009-02-19T15:03:37Z</time>
      </trkpt>
      <trkpt lat="42.46345" lon="2.06928">
        <ele>1581</ele>
        <time>2009-02-19T15:04:08Z</time>
      </trkpt>
      <trkpt lat="42.4634" lon="2.06922">
        <ele>1581</ele>
        <time>2009-02-19T15:04:38Z</time>
      </trkpt>
      <trkpt lat="42.46342" lon="2.06917">
        <ele>1581</ele>
        <time>2009-02-19T15:05:08Z</time>
      </trkpt>
      <trkpt lat="42.46343" lon="2.06894">
        <ele>1581</ele>
        <time>2009-02-19T15:05:39Z</time>
      </trkpt>
      <trkpt lat="42.46346" lon="2.06873">
        <ele>1581</ele>
        <time>2009-02-19T15:06:09Z</time>
      </trkpt>
      <trkpt lat="42.46359" lon="2.06845">
        <ele>1580</ele>
        <time>2009-02-19T15:06:40Z</time>
      </trkpt>
      <trkpt lat="42.4638" lon="2.06823">
        <ele>1580</ele>
        <time>2009-02-19T15:07:10Z</time>
      </trkpt>
      <trkpt lat="42.4639" lon="2.06807">
        <ele>1580</ele>
        <time>2009-02-19T15:07:40Z</time>
      </trkpt>
      <trkpt lat="42.46407" lon="2.06768">
        <ele>1579</ele>
        <time>2009-02-19T15:08:11Z</time>
      </trkpt>
      <trkpt lat="42.46423" lon="2.06737">
        <ele>1580</ele>
        <time>2009-02-19T15:08:41Z</time>
      </trkpt>
      <trkpt lat="42.4644" lon="2.06705">
        <ele>1579</ele>
        <time>2009-02-19T15:09:11Z</time>
      </trkpt>
      <trkpt lat="42.46442" lon="2.06692">
        <ele>1580</ele>
        <time>2009-02-19T15:09:42Z</time>
      </trkpt>
      <trkpt lat="42.4644" lon="2.06692">
        <ele>1580</ele>
        <time>2009-02-19T15:10:12Z</time>
      </trkpt>
      <trkpt lat="42.46443" lon="2.0667">
        <ele>1580</ele>
        <time>2009-02-19T15:10:42Z</time>
      </trkpt>
      <trkpt lat="42.46457" lon="2.0663">
        <ele>1581</ele>
        <time>2009-02-19T15:11:13Z</time>
      </trkpt>
      <trkpt lat="42.4646" lon="2.06615">
        <ele>1582</ele>
        <time>2009-02-19T15:11:43Z</time>
      </trkpt>
      <trkpt lat="42.46468" lon="2.06587">
        <ele>1582</ele>
        <time>2009-02-19T15:12:13Z</time>
      </trkpt>
      <trkpt lat="42.46485" lon="2.06553">
        <ele>1582</ele>
        <time>2009-02-19T15:12:44Z</time>
      </trkpt>
      <trkpt lat="42.46488" lon="2.06538">
        <ele>1583</ele>
        <time>2009-02-19T15:13:14Z</time>
      </trkpt>
      <trkpt lat="42.46495" lon="2.06497">
        <ele>1584</ele>
        <time>2009-02-19T15:13:44Z</time>
      </trkpt>
      <trkpt lat="42.46508" lon="2.0646">
        <ele>1583</ele>
        <time>2009-02-19T15:14:15Z</time>
      </trkpt>
      <trkpt lat="42.46515" lon="2.06438">
        <ele>1583</ele>
        <time>2009-02-19T15:14:45Z</time>
      </trkpt>
      <trkpt lat="42.46532" lon="2.06398">
        <ele>1582</ele>
        <time>2009-02-19T15:15:15Z</time>
      </trkpt>
      <trkpt lat="42.46552" lon="2.06362">
        <ele>1579</ele>
        <time>2009-02-19T15:15:46Z</time>
      </trkpt>
      <trkpt lat="42.46558" lon="2.06328">
        <ele>1577</ele>
        <time>2009-02-19T15:16:16Z</time>
      </trkpt>
      <trkpt lat="42.46563" lon="2.06303">
        <ele>1575</ele>
        <time>2009-02-19T15:16:46Z</time>
      </trkpt>
      <trkpt lat="42.46567" lon="2.0626">
        <ele>1572</ele>
        <time>2009-02-19T15:17:17Z</time>
      </trkpt>
      <trkpt lat="42.46575" lon="2.06213">
        <ele>1570</ele>
        <time>2009-02-19T15:17:47Z</time>
      </trkpt>
      <trkpt lat="42.46588" lon="2.06175">
        <ele>1568</ele>
        <time>2009-02-19T15:18:17Z</time>
      </trkpt>
      <trkpt lat="42.46597" lon="2.06147">
        <ele>1566</ele>
        <time>2009-02-19T15:18:48Z</time>
      </trkpt>
      <trkpt lat="42.466" lon="2.06133">
        <ele>1565</ele>
        <time>2009-02-19T15:19:18Z</time>
      </trkpt>
      <trkpt lat="42.46607" lon="2.0612">
        <ele>1564</ele>
        <time>2009-02-19T15:20:49Z</time>
      </trkpt>
      <trkpt lat="42.46623" lon="2.061">
        <ele>1559</ele>
        <time>2009-02-19T15:21:20Z</time>
      </trkpt>
      <trkpt lat="42.46623" lon="2.06092">
        <ele>1559</ele>
        <time>2009-02-19T15:21:50Z</time>
      </trkpt>
      <trkpt lat="42.46623" lon="2.06092">
        <ele>1559</ele>
        <time>2009-02-19T15:22:20Z</time>
      </trkpt>
      <trkpt lat="42.46623" lon="2.06073">
        <ele>1558</ele>
        <time>2009-02-19T15:22:51Z</time>
      </trkpt>
      <trkpt lat="42.46635" lon="2.06063">
        <ele>1555</ele>
        <time>2009-02-19T15:23:21Z</time>
      </trkpt>
      <trkpt lat="42.4664" lon="2.0606">
        <ele>1553</ele>
        <time>2009-02-19T15:24:52Z</time>
      </trkpt>
      <trkpt lat="42.46658" lon="2.06022">
        <ele>1548</ele>
        <time>2009-02-19T15:25:22Z</time>
      </trkpt>
      <trkpt lat="42.46685" lon="2.05985">
        <ele>1542</ele>
        <time>2009-02-19T15:25:53Z</time>
      </trkpt>
      <trkpt lat="42.46688" lon="2.05967">
        <ele>1542</ele>
        <time>2009-02-19T15:26:23Z</time>
      </trkpt>
      <trkpt lat="42.46703" lon="2.05965">
        <ele>1539</ele>
        <time>2009-02-19T15:26:53Z</time>
      </trkpt>
      <trkpt lat="42.46707" lon="2.05988">
        <ele>1536</ele>
        <time>2009-02-19T15:27:24Z</time>
      </trkpt>
      <trkpt lat="42.4671" lon="2.06013">
        <ele>1533</ele>
        <time>2009-02-19T15:27:54Z</time>
      </trkpt>
      <trkpt lat="42.4671" lon="2.06013">
        <ele>1533</ele>
        <time>2009-02-19T15:28:24Z</time>
      </trkpt>
      <trkpt lat="42.4671" lon="2.06015">
        <ele>1533</ele>
        <time>2009-02-19T15:28:55Z</time>
      </trkpt>
      <trkpt lat="42.46712" lon="2.06043">
        <ele>1530</ele>
        <time>2009-02-19T15:29:25Z</time>
      </trkpt>
      <trkpt lat="42.46708" lon="2.06062">
        <ele>1529</ele>
        <time>2009-02-19T15:29:55Z</time>
      </trkpt>
      <trkpt lat="42.4671" lon="2.06065">
        <ele>1529</ele>
        <time>2009-02-19T15:34:59Z</time>
      </trkpt>
      <trkpt lat="42.46718" lon="2.06083">
        <ele>1525</ele>
        <time>2009-02-19T15:35:29Z</time>
      </trkpt>
      <trkpt lat="42.46728" lon="2.06128">
        <ele>1521</ele>
        <time>2009-02-19T15:36:00Z</time>
      </trkpt>
      <trkpt lat="42.46735" lon="2.0615">
        <ele>1520</ele>
        <time>2009-02-19T15:36:30Z</time>
      </trkpt>
      <trkpt lat="42.4674" lon="2.06165">
        <ele>1519</ele>
        <time>2009-02-19T15:37:01Z</time>
      </trkpt>
      <trkpt lat="42.46742" lon="2.06175">
        <ele>1519</ele>
        <time>2009-02-19T15:39:02Z</time>
      </trkpt>
      <trkpt lat="42.46762" lon="2.06188">
        <ele>1519</ele>
        <time>2009-02-19T15:40:03Z</time>
      </trkpt>
      <trkpt lat="42.46785" lon="2.06212">
        <ele>1521</ele>
        <time>2009-02-19T15:40:33Z</time>
      </trkpt>
      <trkpt lat="42.46797" lon="2.06235">
        <ele>1523</ele>
        <time>2009-02-19T15:41:03Z</time>
      </trkpt>
      <trkpt lat="42.46815" lon="2.0625">
        <ele>1526</ele>
        <time>2009-02-19T15:41:34Z</time>
      </trkpt>
      <trkpt lat="42.46835" lon="2.06282">
        <ele>1530</ele>
        <time>2009-02-19T15:44:36Z</time>
      </trkpt>
      <trkpt lat="42.46848" lon="2.06297">
        <ele>1532</ele>
        <time>2009-02-19T15:45:06Z</time>
      </trkpt>
      <trkpt lat="42.46857" lon="2.06295">
        <ele>1533</ele>
        <time>2009-02-19T15:45:36Z</time>
      </trkpt>
      <trkpt lat="42.46872" lon="2.063">
        <ele>1535</ele>
        <time>2009-02-19T15:46:07Z</time>
      </trkpt>
      <trkpt lat="42.46887" lon="2.06305">
        <ele>1537</ele>
        <time>2009-02-19T15:46:37Z</time>
      </trkpt>
      <trkpt lat="42.46908" lon="2.06315">
        <ele>1539</ele>
        <time>2009-02-19T15:47:07Z</time>
      </trkpt>
      <trkpt lat="42.46928" lon="2.06327">
        <ele>1540</ele>
        <time>2009-02-19T15:47:38Z</time>
      </trkpt>
      <trkpt lat="42.46932" lon="2.06327">
        <ele>1541</ele>
        <time>2009-02-19T15:48:08Z</time>
      </trkpt>
      <trkpt lat="42.46953" lon="2.06345">
        <ele>1543</ele>
        <time>2009-02-19T15:48:38Z</time>
      </trkpt>
      <trkpt lat="42.46977" lon="2.06355">
        <ele>1545</ele>
        <time>2009-02-19T15:49:09Z</time>
      </trkpt>
      <trkpt lat="42.4699" lon="2.06358">
        <ele>1546</ele>
        <time>2009-02-19T15:49:39Z</time>
      </trkpt>
      <trkpt lat="42.46987" lon="2.0639">
        <ele>1548</ele>
        <time>2009-02-19T16:13:25Z</time>
      </trkpt>
      <trkpt lat="42.46975" lon="2.06422">
        <ele>1550</ele>
        <time>2009-02-19T16:13:55Z</time>
      </trkpt>
      <trkpt lat="42.46967" lon="2.06455">
        <ele>1551</ele>
        <time>2009-02-19T16:14:26Z</time>
      </trkpt>
      <trkpt lat="42.46962" lon="2.06468">
        <ele>1552</ele>
        <time>2009-02-19T16:14:56Z</time>
      </trkpt>
      <trkpt lat="42.46952" lon="2.06495">
        <ele>1553</ele>
        <time>2009-02-19T16:15:26Z</time>
      </trkpt>
      <trkpt lat="42.46942" lon="2.06525">
        <ele>1553</ele>
        <time>2009-02-19T16:15:57Z</time>
      </trkpt>
      <trkpt lat="42.46937" lon="2.06563">
        <ele>1554</ele>
        <time>2009-02-19T16:16:27Z</time>
      </trkpt>
      <trkpt lat="42.46935" lon="2.06597">
        <ele>1556</ele>
        <time>2009-02-19T16:16:57Z</time>
      </trkpt>
      <trkpt lat="42.46932" lon="2.0663">
        <ele>1557</ele>
        <time>2009-02-19T16:17:28Z</time>
      </trkpt>
      <trkpt lat="42.46938" lon="2.06663">
        <ele>1559</ele>
        <time>2009-02-19T16:17:58Z</time>
      </trkpt>
      <trkpt lat="42.46938" lon="2.0669">
        <ele>1560</ele>
        <time>2009-02-19T16:18:28Z</time>
      </trkpt>
      <trkpt lat="42.4694" lon="2.06725">
        <ele>1562</ele>
        <time>2009-02-19T16:18:59Z</time>
      </trkpt>
      <trkpt lat="42.46942" lon="2.06748">
        <ele>1562</ele>
        <time>2009-02-19T16:19:29Z</time>
      </trkpt>
      <trkpt lat="42.46945" lon="2.06772">
        <ele>1563</ele>
        <time>2009-02-19T16:19:59Z</time>
      </trkpt>
      <trkpt lat="42.4695" lon="2.06787">
        <ele>1563</ele>
        <time>2009-02-19T16:20:30Z</time>
      </trkpt>
      <trkpt lat="42.4696" lon="2.06822">
        <ele>1565</ele>
        <time>2009-02-19T16:21:00Z</time>
      </trkpt>
      <trkpt lat="42.46962" lon="2.06853">
        <ele>1567</ele>
        <time>2009-02-19T16:21:30Z</time>
      </trkpt>
      <trkpt lat="42.46957" lon="2.06878">
        <ele>1569</ele>
        <time>2009-02-19T16:24:32Z</time>
      </trkpt>
      <trkpt lat="42.46943" lon="2.06898">
        <ele>1570</ele>
        <time>2009-02-19T16:25:03Z</time>
      </trkpt>
      <trkpt lat="42.46923" lon="2.06912">
        <ele>1571</ele>
        <time>2009-02-19T16:25:33Z</time>
      </trkpt>
      <trkpt lat="42.46908" lon="2.06924">
        <ele>1573</ele>
        <time>2009-02-19T16:26:03Z</time>
      </trkpt>
      <trkpt lat="42.4689" lon="2.06937">
        <ele>1575</ele>
        <time>2009-02-19T16:26:34Z</time>
      </trkpt>
      <trkpt lat="42.46885" lon="2.06958">
        <ele>1578</ele>
        <time>2009-02-19T16:28:35Z</time>
      </trkpt>
      <trkpt lat="42.46875" lon="2.06995">
        <ele>1581</ele>
        <time>2009-02-19T16:29:05Z</time>
      </trkpt>
      <trkpt lat="42.46872" lon="2.07003">
        <ele>1581</ele>
        <time>2009-02-19T16:29:45Z</time>
      </trkpt>
      <trkpt lat="42.46867" lon="2.0703">
        <ele>1583</ele>
        <time>2009-02-19T16:30:31Z</time>
      </trkpt>
      <trkpt lat="42.4686" lon="2.07065">
        <ele>1586</ele>
        <time>2009-02-19T16:31:01Z</time>
      </trkpt>
      <trkpt lat="42.46853" lon="2.07095">
        <ele>1588</ele>
        <time>2009-02-19T16:31:32Z</time>
      </trkpt>
      <trkpt lat="42.46847" lon="2.07127">
        <ele>1591</ele>
        <time>2009-02-19T16:32:02Z</time>
      </trkpt>
      <trkpt lat="42.46833" lon="2.0715">
        <ele>1593</ele>
        <time>2009-02-19T16:32:32Z</time>
      </trkpt>
      <trkpt lat="42.4683" lon="2.07172">
        <ele>1595</ele>
        <time>2009-02-19T16:33:03Z</time>
      </trkpt>
      <trkpt lat="42.46828" lon="2.07178">
        <ele>1595</ele>
        <time>2009-02-19T16:33:33Z</time>
      </trkpt>
      <trkpt lat="42.46838" lon="2.0719">
        <ele>1597</ele>
        <time>2009-02-19T16:35:04Z</time>
      </trkpt>
      <trkpt lat="42.46838" lon="2.072">
        <ele>1598</ele>
        <time>2009-02-19T16:35:34Z</time>
      </trkpt>
      <trkpt lat="42.46838" lon="2.07232">
        <ele>1601</ele>
        <time>2009-02-19T16:36:05Z</time>
      </trkpt>
      <trkpt lat="42.46838" lon="2.07252">
        <ele>1602</ele>
        <time>2009-02-19T16:36:35Z</time>
      </trkpt>
      <trkpt lat="42.46848" lon="2.07283">
        <ele>1604</ele>
        <time>2009-02-19T16:37:05Z</time>
      </trkpt>
      <trkpt lat="42.46855" lon="2.07302">
        <ele>1605</ele>
        <time>2009-02-19T16:37:36Z</time>
      </trkpt>
      <trkpt lat="42.46858" lon="2.07332">
        <ele>1607</ele>
        <time>2009-02-19T16:38:06Z</time>
      </trkpt>
      <trkpt lat="42.46855" lon="2.07345">
        <ele>1607</ele>
        <time>2009-02-19T16:38:36Z</time>
      </trkpt>
      <trkpt lat="42.46858" lon="2.07367">
        <ele>1608</ele>
        <time>2009-02-19T16:39:07Z</time>
      </trkpt>
      <trkpt lat="42.46872" lon="2.0739">
        <ele>1609</ele>
        <time>2009-02-19T16:39:37Z</time>
      </trkpt>
      <trkpt lat="42.46873" lon="2.07395">
        <ele>1610</ele>
        <time>2009-02-19T16:40:07Z</time>
      </trkpt>
      <trkpt lat="42.46878" lon="2.07411">
        <ele>1610</ele>
        <time>2009-02-19T16:40:38Z</time>
      </trkpt>
      <trkpt lat="42.46883" lon="2.0744">
        <ele>1611</ele>
        <time>2009-02-19T16:41:08Z</time>
      </trkpt>
      <trkpt lat="42.46884" lon="2.07454">
        <ele>1612</ele>
        <time>2009-02-19T16:42:08Z</time>
      </trkpt>
      <trkpt lat="42.46884" lon="2.07462">
        <ele>1612</ele>
        <time>2009-02-19T16:42:39Z</time>
      </trkpt>
      <trkpt lat="42.46885" lon="2.07478">
        <ele>1613</ele>
        <time>2009-02-19T16:43:09Z</time>
      </trkpt>
      <trkpt lat="42.46889" lon="2.0751">
        <ele>1615</ele>
        <time>2009-02-19T16:43:39Z</time>
      </trkpt>
      <trkpt lat="42.46894" lon="2.07542">
        <ele>1618</ele>
        <time>2009-02-19T16:44:10Z</time>
      </trkpt>
      <trkpt lat="42.46895" lon="2.07564">
        <ele>1620</ele>
        <time>2009-02-19T16:44:40Z</time>
      </trkpt>
      <trkpt lat="42.46898" lon="2.07598">
        <ele>1622</ele>
        <time>2009-02-19T16:45:11Z</time>
      </trkpt>
      <trkpt lat="42.46901" lon="2.07622">
        <ele>1624</ele>
        <time>2009-02-19T16:45:41Z</time>
      </trkpt>
      <trkpt lat="42.46906" lon="2.07645">
        <ele>1626</ele>
        <time>2009-02-19T16:46:11Z</time>
      </trkpt>
      <trkpt lat="42.46908" lon="2.07673">
        <ele>1627</ele>
        <time>2009-02-19T16:46:42Z</time>
      </trkpt>
      <trkpt lat="42.46909" lon="2.07696">
        <ele>1628</ele>
        <time>2009-02-19T16:47:12Z</time>
      </trkpt>
      <trkpt lat="42.4691" lon="2.07718">
        <ele>1629</ele>
        <time>2009-02-19T16:47:42Z</time>
      </trkpt>
      <trkpt lat="42.46905" lon="2.07746">
        <ele>1630</ele>
        <time>2009-02-19T16:48:13Z</time>
      </trkpt>
      <trkpt lat="42.46905" lon="2.07763">
        <ele>1631</ele>
        <time>2009-02-19T16:48:43Z</time>
      </trkpt>
      <trkpt lat="42.46917" lon="2.07805">
        <ele>1630</ele>
        <time>2009-02-19T16:52:46Z</time>
      </trkpt>
      <trkpt lat="42.4692" lon="2.07827">
        <ele>1630</ele>
        <time>2009-02-19T16:53:16Z</time>
      </trkpt>
      <trkpt lat="42.46925" lon="2.07848">
        <ele>1628</ele>
        <time>2009-02-19T16:53:46Z</time>
      </trkpt>
      <trkpt lat="42.4694" lon="2.07882">
        <ele>1624</ele>
        <time>2009-02-19T16:54:17Z</time>
      </trkpt>
      <trkpt lat="42.46942" lon="2.0789">
        <ele>1623</ele>
        <time>2009-02-19T16:54:47Z</time>
      </trkpt>
      <trkpt lat="42.46953" lon="2.07927">
        <ele>1619</ele>
        <time>2009-02-19T16:55:17Z</time>
      </trkpt>
      <trkpt lat="42.46965" lon="2.07963">
        <ele>1614</ele>
        <time>2009-02-19T16:55:48Z</time>
      </trkpt>
      <trkpt lat="42.46965" lon="2.07985">
        <ele>1613</ele>
        <time>2009-02-19T16:56:18Z</time>
      </trkpt>
      <trkpt lat="42.46968" lon="2.08022">
        <ele>1608</ele>
        <time>2009-02-19T16:56:48Z</time>
      </trkpt>
      <trkpt lat="42.46963" lon="2.0805">
        <ele>1605</ele>
        <time>2009-02-19T16:57:19Z</time>
      </trkpt>
      <trkpt lat="42.46947" lon="2.08077">
        <ele>1605</ele>
        <time>2009-02-19T16:57:49Z</time>
      </trkpt>
      <trkpt lat="42.46929" lon="2.08106">
        <ele>1603</ele>
        <time>2009-02-19T16:58:19Z</time>
      </trkpt>
      <trkpt lat="42.46918" lon="2.08119">
        <ele>1603</ele>
        <time>2009-02-19T16:58:50Z</time>
      </trkpt>
      <trkpt lat="42.46915" lon="2.08128">
        <ele>1603</ele>
        <time>2009-02-19T16:59:20Z</time>
      </trkpt>
      <trkpt lat="42.46927" lon="2.08158">
        <ele>1602</ele>
        <time>2009-02-19T16:59:50Z</time>
      </trkpt>
      <trkpt lat="42.46952" lon="2.08172">
        <ele>1601</ele>
        <time>2009-02-19T17:00:21Z</time>
      </trkpt>
      <trkpt lat="42.46978" lon="2.08163">
        <ele>1600</ele>
        <time>2009-02-19T17:00:51Z</time>
      </trkpt>
    </trkseg>
  </trk>
</gpx>